sensor_id;sensor_type;location;lat;lon;timestamp;P1;durP1;ratioP1;P2;durP2;ratioP2
74469;SDS011;62918;55.706;37.816;2023-06-14T00:00:20;14.02;;;8.88;;
74469;SDS011;62918;55.706;37.816;2023-06-14T00:00:50;16.98;;;9.30;;
74469;SDS011;62918;55.706;37.816;2023-06-14T00:01:23;17.88;;;9.35;;
74469;SDS011;62918;55.706;37.816;2023-06-14T00:01:53;17.65;;;9.43;;
74469;SDS011;62918;55.706;37.816;2023-06-14T00:02:25;18.85;;;9.32;;
74469;SDS011;62918;55.706;37.816;2023-06-14T00:02:56;19.08;;;9.07;;
74469;SDS011;62918;55.706;37.816;2023-06-14T00:03:27;22.08;;;8.55;;
74469;SDS011;62918;55.706;37.816;2023-06-14T00:03:57;16.27;;;9.27;;
74469;SDS011;62918;55.706;37.816;2023-06-14T00:04:29;16.85;;;9.38;;
74469;SDS011;62918;55.706;37.816;2023-06-14T00:05:01;15.73;;;9.25;;
74469;SDS011;62918;55.706;37.816;2023-06-14T00:05:31;15.50;;;8.98;;
74469;SDS011;62918;55.706;37.816;2023-06-14T00:06:03;21.35;;;10.52;;
74469;SDS011;62918;55.706;37.816;2023-06-14T00:06:34;18.70;;;9.38;;
74469;SDS011;62918;55.706;37.816;2023-06-14T00:07:05;19.73;;;9.40;;
74469;SDS011;62918;55.706;37.816;2023-06-14T00:07:38;16.73;;;10.00;;
74469;SDS011;62918;55.706;37.816;2023-06-14T00:08:13;17.80;;;9.70;;
74469;SDS011;62918;55.706;37.816;2023-06-14T00:08:44;19.63;;;8.90;;
74469;SDS011;62918;55.706;37.816;2023-06-14T00:09:14;17.10;;;9.48;;
74469;SDS011;62918;55.706;37.816;2023-06-14T00:09:47;21.38;;;9.70;;
74469;SDS011;62918;55.706;37.816;2023-06-14T00:10:18;19.00;;;9.65;;
74469;SDS011;62918;55.706;37.816;2023-06-14T00:10:48;15.60;;;9.13;;
74469;SDS011;62918;55.706;37.816;2023-06-14T00:11:19;19.38;;;9.43;;
74469;SDS011;62918;55.706;37.816;2023-06-14T00:11:50;16.92;;;8.98;;
74469;SDS011;62918;55.706;37.816;2023-06-14T00:12:21;16.15;;;8.77;;
74469;SDS011;62918;55.706;37.816;2023-06-14T00:12:51;15.23;;;8.95;;
74469;SDS011;62918;55.706;37.816;2023-06-14T00:13:22;19.23;;;9.27;;
74469;SDS011;62918;55.706;37.816;2023-06-14T00:13:53;19.33;;;9.00;;
74469;SDS011;62918;55.706;37.816;2023-06-14T00:14:24;20.23;;;9.13;;
74469;SDS011;62918;55.706;37.816;2023-06-14T00:14:55;17.67;;;9.90;;
74469;SDS011;62918;55.706;37.816;2023-06-14T00:15:25;21.55;;;10.00;;
74469;SDS011;62918;55.706;37.816;2023-06-14T00:15:56;17.65;;;8.70;;
74469;SDS011;62918;55.706;37.816;2023-06-14T00:16:27;15.50;;;8.93;;
74469;SDS011;62918;55.706;37.816;2023-06-14T00:16:57;20.48;;;8.90;;
74469;SDS011;62918;55.706;37.816;2023-06-14T00:17:28;16.75;;;9.40;;
74469;SDS011;62918;55.706;37.816;2023-06-14T00:18:02;15.13;;;8.73;;
74469;SDS011;62918;55.706;37.816;2023-06-14T00:18:34;20.08;;;8.60;;
74469;SDS011;62918;55.706;37.816;2023-06-14T00:19:05;18.08;;;8.98;;
74469;SDS011;62918;55.706;37.816;2023-06-14T00:19:35;15.40;;;9.30;;
74469;SDS011;62918;55.706;37.816;2023-06-14T00:20:06;18.17;;;9.25;;
74469;SDS011;62918;55.706;37.816;2023-06-14T00:20:38;15.70;;;9.43;;
74469;SDS011;62918;55.706;37.816;2023-06-14T00:21:09;13.95;;;7.53;;
74469;SDS011;62918;55.706;37.816;2023-06-14T00:21:40;18.40;;;8.30;;
74469;SDS011;62918;55.706;37.816;2023-06-14T00:22:11;18.23;;;8.77;;
74469;SDS011;62918;55.706;37.816;2023-06-14T00:22:42;15.15;;;8.85;;
74469;SDS011;62918;55.706;37.816;2023-06-14T00:23:13;17.23;;;9.00;;
74469;SDS011;62918;55.706;37.816;2023-06-14T00:23:43;16.77;;;9.00;;
74469;SDS011;62918;55.706;37.816;2023-06-14T00:24:14;15.98;;;8.15;;
74469;SDS011;62918;55.706;37.816;2023-06-14T00:24:45;16.95;;;7.95;;
74469;SDS011;62918;55.706;37.816;2023-06-14T00:25:15;16.15;;;8.40;;
74469;SDS011;62918;55.706;37.816;2023-06-14T00:25:46;14.25;;;7.78;;
74469;SDS011;62918;55.706;37.816;2023-06-14T00:26:17;18.80;;;8.90;;
74469;SDS011;62918;55.706;37.816;2023-06-14T00:26:48;16.52;;;7.85;;
74469;SDS011;62918;55.706;37.816;2023-06-14T00:27:19;14.20;;;8.82;;
74469;SDS011;62918;55.706;37.816;2023-06-14T00:27:49;17.73;;;8.57;;
74469;SDS011;62918;55.706;37.816;2023-06-14T00:28:20;14.85;;;8.32;;
74469;SDS011;62918;55.706;37.816;2023-06-14T00:28:51;12.50;;;7.57;;
74469;SDS011;62918;55.706;37.816;2023-06-14T00:29:22;13.38;;;7.80;;
74469;SDS011;62918;55.706;37.816;2023-06-14T00:29:52;18.00;;;7.65;;
74469;SDS011;62918;55.706;37.816;2023-06-14T00:30:23;14.63;;;7.40;;
74469;SDS011;62918;55.706;37.816;2023-06-14T00:30:54;14.15;;;7.15;;
74469;SDS011;62918;55.706;37.816;2023-06-14T00:31:25;14.38;;;8.35;;
74469;SDS011;62918;55.706;37.816;2023-06-14T00:31:56;16.25;;;8.18;;
74469;SDS011;62918;55.706;37.816;2023-06-14T00:32:26;19.27;;;8.60;;
74469;SDS011;62918;55.706;37.816;2023-06-14T00:32:58;16.52;;;8.07;;
74469;SDS011;62918;55.706;37.816;2023-06-14T00:33:28;15.13;;;8.90;;
74469;SDS011;62918;55.706;37.816;2023-06-14T00:33:59;18.25;;;8.55;;
74469;SDS011;62918;55.706;37.816;2023-06-14T00:34:30;14.55;;;8.82;;
74469;SDS011;62918;55.706;37.816;2023-06-14T00:35:01;19.15;;;9.52;;
74469;SDS011;62918;55.706;37.816;2023-06-14T00:35:32;18.83;;;8.77;;
74469;SDS011;62918;55.706;37.816;2023-06-14T00:36:03;16.67;;;8.50;;
74469;SDS011;62918;55.706;37.816;2023-06-14T00:36:34;16.90;;;8.82;;
74469;SDS011;62918;55.706;37.816;2023-06-14T00:37:05;17.35;;;8.88;;
74469;SDS011;62918;55.706;37.816;2023-06-14T00:37:35;16.95;;;9.18;;
74469;SDS011;62918;55.706;37.816;2023-06-14T00:38:06;23.52;;;8.90;;
74469;SDS011;62918;55.706;37.816;2023-06-14T00:38:37;19.52;;;8.45;;
74469;SDS011;62918;55.706;37.816;2023-06-14T00:39:08;20.45;;;8.68;;
74469;SDS011;62918;55.706;37.816;2023-06-14T00:39:39;16.15;;;8.40;;
74469;SDS011;62918;55.706;37.816;2023-06-14T00:40:10;21.70;;;8.85;;
74469;SDS011;62918;55.706;37.816;2023-06-14T00:40:41;16.30;;;8.73;;
74469;SDS011;62918;55.706;37.816;2023-06-14T00:41:12;15.18;;;8.50;;
74469;SDS011;62918;55.706;37.816;2023-06-14T00:41:42;14.82;;;7.55;;
74469;SDS011;62918;55.706;37.816;2023-06-14T00:42:22;20.67;;;9.18;;
74469;SDS011;62918;55.706;37.816;2023-06-14T00:42:54;15.10;;;9.23;;
74469;SDS011;62918;55.706;37.816;2023-06-14T00:43:25;16.13;;;7.50;;
74469;SDS011;62918;55.706;37.816;2023-06-14T00:43:55;17.10;;;8.27;;
74469;SDS011;62918;55.706;37.816;2023-06-14T00:44:26;18.60;;;8.93;;
74469;SDS011;62918;55.706;37.816;2023-06-14T00:44:57;18.77;;;8.43;;
74469;SDS011;62918;55.706;37.816;2023-06-14T00:45:28;15.40;;;7.60;;
74469;SDS011;62918;55.706;37.816;2023-06-14T00:45:58;19.70;;;8.43;;
74469;SDS011;62918;55.706;37.816;2023-06-14T00:46:29;17.55;;;8.70;;
74469;SDS011;62918;55.706;37.816;2023-06-14T00:46:59;17.77;;;9.50;;
74469;SDS011;62918;55.706;37.816;2023-06-14T00:47:30;16.75;;;8.30;;
74469;SDS011;62918;55.706;37.816;2023-06-14T00:48:01;22.30;;;9.23;;
74469;SDS011;62918;55.706;37.816;2023-06-14T00:48:33;19.00;;;9.40;;
74469;SDS011;62918;55.706;37.816;2023-06-14T00:49:05;15.63;;;8.20;;
74469;SDS011;62918;55.706;37.816;2023-06-14T00:49:36;18.98;;;9.73;;
74469;SDS011;62918;55.706;37.816;2023-06-14T00:50:07;16.02;;;8.10;;
74469;SDS011;62918;55.706;37.816;2023-06-14T00:50:39;16.48;;;9.30;;
74469;SDS011;62918;55.706;37.816;2023-06-14T00:51:11;16.13;;;8.32;;
74469;SDS011;62918;55.706;37.816;2023-06-14T00:51:41;20.27;;;9.27;;
74469;SDS011;62918;55.706;37.816;2023-06-14T00:52:13;15.40;;;8.43;;
74469;SDS011;62918;55.706;37.816;2023-06-14T00:52:44;13.73;;;8.40;;
74469;SDS011;62918;55.706;37.816;2023-06-14T00:53:15;18.40;;;8.80;;
74469;SDS011;62918;55.706;37.816;2023-06-14T00:54:18;16.75;;;8.18;;
74469;SDS011;62918;55.706;37.816;2023-06-14T00:54:48;16.08;;;8.23;;
74469;SDS011;62918;55.706;37.816;2023-06-14T00:55:19;18.73;;;8.25;;
74469;SDS011;62918;55.706;37.816;2023-06-14T00:55:50;15.57;;;7.97;;
74469;SDS011;62918;55.706;37.816;2023-06-14T00:56:20;16.25;;;8.38;;
74469;SDS011;62918;55.706;37.816;2023-06-14T00:56:51;14.77;;;7.55;;
74469;SDS011;62918;55.706;37.816;2023-06-14T00:57:22;13.35;;;8.00;;
74469;SDS011;62918;55.706;37.816;2023-06-14T00:57:56;14.60;;;7.65;;
74469;SDS011;62918;55.706;37.816;2023-06-14T00:58:27;18.92;;;8.88;;
74469;SDS011;62918;55.706;37.816;2023-06-14T00:58:58;16.42;;;8.93;;
74469;SDS011;62918;55.706;37.816;2023-06-14T00:59:34;14.00;;;7.32;;
74469;SDS011;62918;55.706;37.816;2023-06-14T01:00:08;16.10;;;8.35;;
74469;SDS011;62918;55.706;37.816;2023-06-14T01:00:40;13.23;;;8.15;;
74469;SDS011;62918;55.706;37.816;2023-06-14T01:01:10;14.63;;;7.80;;
74469;SDS011;62918;55.706;37.816;2023-06-14T01:01:41;10.98;;;7.13;;
74469;SDS011;62918;55.706;37.816;2023-06-14T01:02:12;20.20;;;8.70;;
74469;SDS011;62918;55.706;37.816;2023-06-14T01:02:43;19.33;;;8.98;;
74469;SDS011;62918;55.706;37.816;2023-06-14T01:03:14;21.67;;;8.40;;
74469;SDS011;62918;55.706;37.816;2023-06-14T01:03:49;13.95;;;7.45;;
74469;SDS011;62918;55.706;37.816;2023-06-14T01:04:21;20.17;;;7.97;;
74469;SDS011;62918;55.706;37.816;2023-06-14T01:04:52;17.42;;;8.10;;
74469;SDS011;62918;55.706;37.816;2023-06-14T01:05:24;15.75;;;8.05;;
74469;SDS011;62918;55.706;37.816;2023-06-14T01:07:18;13.50;;;6.45;;
74469;SDS011;62918;55.706;37.816;2023-06-14T01:08:28;14.68;;;7.47;;
74469;SDS011;62918;55.706;37.816;2023-06-14T01:09:48;16.15;;;9.32;;
74469;SDS011;62918;55.706;37.816;2023-06-14T01:10:52;14.07;;;8.45;;
74469;SDS011;62918;55.706;37.816;2023-06-14T01:11:28;14.77;;;8.40;;
74469;SDS011;62918;55.706;37.816;2023-06-14T01:12:09;18.85;;;8.88;;
74469;SDS011;62918;55.706;37.816;2023-06-14T01:13:34;14.23;;;8.35;;
74469;SDS011;62918;55.706;37.816;2023-06-14T01:14:07;15.25;;;8.35;;
74469;SDS011;62918;55.706;37.816;2023-06-14T01:14:42;14.77;;;8.60;;
74469;SDS011;62918;55.706;37.816;2023-06-14T01:15:14;19.50;;;8.60;;
74469;SDS011;62918;55.706;37.816;2023-06-14T01:15:45;16.38;;;8.80;;
74469;SDS011;62918;55.706;37.816;2023-06-14T01:16:17;16.38;;;8.32;;
74469;SDS011;62918;55.706;37.816;2023-06-14T01:16:48;18.60;;;9.23;;
74469;SDS011;62918;55.706;37.816;2023-06-14T01:17:23;16.83;;;8.30;;
74469;SDS011;62918;55.706;37.816;2023-06-14T01:17:57;16.83;;;8.13;;
74469;SDS011;62918;55.706;37.816;2023-06-14T01:18:33;14.75;;;7.85;;
74469;SDS011;62918;55.706;37.816;2023-06-14T01:19:05;13.18;;;7.65;;
74469;SDS011;62918;55.706;37.816;2023-06-14T01:19:39;12.90;;;8.30;;
74469;SDS011;62918;55.706;37.816;2023-06-14T01:20:12;12.80;;;7.65;;
74469;SDS011;62918;55.706;37.816;2023-06-14T01:20:47;16.23;;;8.35;;
74469;SDS011;62918;55.706;37.816;2023-06-14T01:21:21;10.73;;;6.50;;
74469;SDS011;62918;55.706;37.816;2023-06-14T01:21:55;13.48;;;7.35;;
74469;SDS011;62918;55.706;37.816;2023-06-14T01:22:26;15.38;;;7.68;;
74469;SDS011;62918;55.706;37.816;2023-06-14T01:22:58;18.13;;;9.15;;
74469;SDS011;62918;55.706;37.816;2023-06-14T01:23:29;12.38;;;7.00;;
74469;SDS011;62918;55.706;37.816;2023-06-14T01:24:02;14.55;;;7.75;;
74469;SDS011;62918;55.706;37.816;2023-06-14T01:24:33;12.50;;;7.80;;
74469;SDS011;62918;55.706;37.816;2023-06-14T01:25:05;13.13;;;6.53;;
74469;SDS011;62918;55.706;37.816;2023-06-14T01:25:36;15.70;;;8.50;;
74469;SDS011;62918;55.706;37.816;2023-06-14T01:26:07;13.63;;;8.90;;
74469;SDS011;62918;55.706;37.816;2023-06-14T01:26:38;17.52;;;10.15;;
74469;SDS011;62918;55.706;37.816;2023-06-14T01:27:15;14.27;;;8.98;;
74469;SDS011;62918;55.706;37.816;2023-06-14T01:27:48;15.90;;;8.93;;
74469;SDS011;62918;55.706;37.816;2023-06-14T01:28:21;13.85;;;8.27;;
74469;SDS011;62918;55.706;37.816;2023-06-14T01:28:52;17.63;;;8.40;;
74469;SDS011;62918;55.706;37.816;2023-06-14T01:29:26;18.00;;;9.25;;
74469;SDS011;62918;55.706;37.816;2023-06-14T01:30:02;19.05;;;9.98;;
74469;SDS011;62918;55.706;37.816;2023-06-14T01:30:36;16.80;;;8.18;;
74469;SDS011;62918;55.706;37.816;2023-06-14T01:31:08;18.52;;;8.75;;
74469;SDS011;62918;55.706;37.816;2023-06-14T01:31:38;22.10;;;8.85;;
74469;SDS011;62918;55.706;37.816;2023-06-14T01:32:11;16.33;;;8.40;;
74469;SDS011;62918;55.706;37.816;2023-06-14T01:32:42;14.35;;;8.55;;
74469;SDS011;62918;55.706;37.816;2023-06-14T01:33:14;18.00;;;9.43;;
74469;SDS011;62918;55.706;37.816;2023-06-14T01:33:47;21.08;;;9.52;;
74469;SDS011;62918;55.706;37.816;2023-06-14T01:34:20;18.38;;;9.45;;
74469;SDS011;62918;55.706;37.816;2023-06-14T01:34:51;14.23;;;9.18;;
74469;SDS011;62918;55.706;37.816;2023-06-14T01:35:22;20.15;;;9.15;;
74469;SDS011;62918;55.706;37.816;2023-06-14T01:35:53;16.42;;;7.72;;
74469;SDS011;62918;55.706;37.816;2023-06-14T01:36:25;16.15;;;9.20;;
74469;SDS011;62918;55.706;37.816;2023-06-14T01:37:30;14.73;;;8.32;;
74469;SDS011;62918;55.706;37.816;2023-06-14T01:38:02;14.13;;;7.32;;
74469;SDS011;62918;55.706;37.816;2023-06-14T01:38:34;14.70;;;7.38;;
74469;SDS011;62918;55.706;37.816;2023-06-14T01:39:05;15.45;;;8.20;;
74469;SDS011;62918;55.706;37.816;2023-06-14T01:39:36;15.45;;;9.00;;
74469;SDS011;62918;55.706;37.816;2023-06-14T01:40:07;14.65;;;7.30;;
74469;SDS011;62918;55.706;37.816;2023-06-14T01:40:40;16.90;;;7.82;;
74469;SDS011;62918;55.706;37.816;2023-06-14T01:41:13;14.13;;;9.10;;
74469;SDS011;62918;55.706;37.816;2023-06-14T01:41:45;14.75;;;8.90;;
74469;SDS011;62918;55.706;37.816;2023-06-14T01:42:18;19.50;;;7.90;;
74469;SDS011;62918;55.706;37.816;2023-06-14T01:42:50;16.27;;;7.63;;
74469;SDS011;62918;55.706;37.816;2023-06-14T01:43:22;16.40;;;7.53;;
74469;SDS011;62918;55.706;37.816;2023-06-14T01:43:53;17.52;;;7.68;;
74469;SDS011;62918;55.706;37.816;2023-06-14T01:44:25;14.35;;;8.10;;
74469;SDS011;62918;55.706;37.816;2023-06-14T01:44:58;16.30;;;8.15;;
74469;SDS011;62918;55.706;37.816;2023-06-14T01:45:30;13.02;;;8.02;;
74469;SDS011;62918;55.706;37.816;2023-06-14T01:46:02;18.02;;;9.30;;
74469;SDS011;62918;55.706;37.816;2023-06-14T01:46:33;14.05;;;8.00;;
74469;SDS011;62918;55.706;37.816;2023-06-14T01:47:05;14.35;;;7.35;;
74469;SDS011;62918;55.706;37.816;2023-06-14T01:47:36;13.57;;;9.40;;
74469;SDS011;62918;55.706;37.816;2023-06-14T01:48:07;17.58;;;8.13;;
74469;SDS011;62918;55.706;37.816;2023-06-14T01:48:38;15.68;;;7.75;;
74469;SDS011;62918;55.706;37.816;2023-06-14T01:49:09;13.07;;;7.50;;
74469;SDS011;62918;55.706;37.816;2023-06-14T01:49:45;15.73;;;8.00;;
74469;SDS011;62918;55.706;37.816;2023-06-14T01:50:18;13.35;;;6.97;;
74469;SDS011;62918;55.706;37.816;2023-06-14T01:50:50;18.38;;;8.82;;
74469;SDS011;62918;55.706;37.816;2023-06-14T01:51:22;17.67;;;8.60;;
74469;SDS011;62918;55.706;37.816;2023-06-14T01:51:53;16.73;;;8.40;;
74469;SDS011;62918;55.706;37.816;2023-06-14T01:52:23;16.42;;;9.57;;
74469;SDS011;62918;55.706;37.816;2023-06-14T01:52:54;15.30;;;7.63;;
74469;SDS011;62918;55.706;37.816;2023-06-14T01:53:25;18.25;;;9.27;;
74469;SDS011;62918;55.706;37.816;2023-06-14T01:53:55;14.38;;;8.40;;
74469;SDS011;62918;55.706;37.816;2023-06-14T01:54:27;16.42;;;8.13;;
74469;SDS011;62918;55.706;37.816;2023-06-14T01:54:59;13.63;;;8.18;;
74469;SDS011;62918;55.706;37.816;2023-06-14T01:55:33;14.18;;;7.63;;
74469;SDS011;62918;55.706;37.816;2023-06-14T01:56:07;14.25;;;8.82;;
74469;SDS011;62918;55.706;37.816;2023-06-14T01:56:38;15.98;;;8.45;;
74469;SDS011;62918;55.706;37.816;2023-06-14T01:57:08;18.73;;;8.10;;
74469;SDS011;62918;55.706;37.816;2023-06-14T01:57:40;17.50;;;7.72;;
74469;SDS011;62918;55.706;37.816;2023-06-14T01:58:11;15.82;;;8.13;;
74469;SDS011;62918;55.706;37.816;2023-06-14T01:58:42;15.82;;;8.70;;
74469;SDS011;62918;55.706;37.816;2023-06-14T01:59:14;14.18;;;7.68;;
74469;SDS011;62918;55.706;37.816;2023-06-14T01:59:46;14.18;;;8.07;;
74469;SDS011;62918;55.706;37.816;2023-06-14T02:00:19;13.43;;;7.22;;
74469;SDS011;62918;55.706;37.816;2023-06-14T02:00:51;18.77;;;8.77;;
74469;SDS011;62918;55.706;37.816;2023-06-14T02:01:25;16.17;;;7.88;;
74469;SDS011;62918;55.706;37.816;2023-06-14T02:01:56;19.23;;;9.85;;
74469;SDS011;62918;55.706;37.816;2023-06-14T02:02:27;13.50;;;8.05;;
74469;SDS011;62918;55.706;37.816;2023-06-14T02:02:58;14.60;;;8.32;;
74469;SDS011;62918;55.706;37.816;2023-06-14T02:03:28;13.05;;;7.45;;
74469;SDS011;62918;55.706;37.816;2023-06-14T02:04:00;15.05;;;8.95;;
74469;SDS011;62918;55.706;37.816;2023-06-14T02:04:30;14.32;;;8.90;;
74469;SDS011;62918;55.706;37.816;2023-06-14T02:05:01;15.60;;;9.70;;
74469;SDS011;62918;55.706;37.816;2023-06-14T02:05:32;15.98;;;7.53;;
74469;SDS011;62918;55.706;37.816;2023-06-14T02:06:04;13.68;;;9.38;;
74469;SDS011;62918;55.706;37.816;2023-06-14T02:06:35;15.95;;;9.65;;
74469;SDS011;62918;55.706;37.816;2023-06-14T02:07:06;13.27;;;7.47;;
74469;SDS011;62918;55.706;37.816;2023-06-14T02:07:36;16.73;;;10.02;;
74469;SDS011;62918;55.706;37.816;2023-06-14T02:08:07;14.82;;;9.30;;
74469;SDS011;62918;55.706;37.816;2023-06-14T02:08:38;17.73;;;9.15;;
74469;SDS011;62918;55.706;37.816;2023-06-14T02:09:08;16.63;;;8.02;;
74469;SDS011;62918;55.706;37.816;2023-06-14T02:09:40;16.05;;;9.32;;
74469;SDS011;62918;55.706;37.816;2023-06-14T02:10:11;15.73;;;8.93;;
74469;SDS011;62918;55.706;37.816;2023-06-14T02:10:42;15.10;;;10.15;;
74469;SDS011;62918;55.706;37.816;2023-06-14T02:11:13;13.65;;;7.78;;
74469;SDS011;62918;55.706;37.816;2023-06-14T02:11:44;14.68;;;8.25;;
74469;SDS011;62918;55.706;37.816;2023-06-14T02:12:15;16.48;;;8.23;;
74469;SDS011;62918;55.706;37.816;2023-06-14T02:12:46;15.07;;;10.05;;
74469;SDS011;62918;55.706;37.816;2023-06-14T02:13:16;18.20;;;10.20;;
74469;SDS011;62918;55.706;37.816;2023-06-14T02:13:47;16.00;;;9.30;;
74469;SDS011;62918;55.706;37.816;2023-06-14T02:14:18;15.35;;;8.48;;
74469;SDS011;62918;55.706;37.816;2023-06-14T02:14:48;14.88;;;8.57;;
74469;SDS011;62918;55.706;37.816;2023-06-14T02:15:19;14.30;;;8.95;;
74469;SDS011;62918;55.706;37.816;2023-06-14T02:15:50;16.20;;;9.13;;
74469;SDS011;62918;55.706;37.816;2023-06-14T02:16:23;16.95;;;10.18;;
74469;SDS011;62918;55.706;37.816;2023-06-14T02:16:55;18.88;;;9.50;;
74469;SDS011;62918;55.706;37.816;2023-06-14T02:17:26;14.93;;;9.10;;
74469;SDS011;62918;55.706;37.816;2023-06-14T02:17:57;19.92;;;10.15;;
74469;SDS011;62918;55.706;37.816;2023-06-14T02:18:28;17.27;;;9.75;;
74469;SDS011;62918;55.706;37.816;2023-06-14T02:19:19;15.82;;;9.45;;
74469;SDS011;62918;55.706;37.816;2023-06-14T02:19:50;18.55;;;10.50;;
74469;SDS011;62918;55.706;37.816;2023-06-14T02:20:21;17.10;;;10.00;;
74469;SDS011;62918;55.706;37.816;2023-06-14T02:20:51;17.80;;;8.88;;
74469;SDS011;62918;55.706;37.816;2023-06-14T02:21:22;16.50;;;8.20;;
74469;SDS011;62918;55.706;37.816;2023-06-14T02:21:53;17.00;;;8.15;;
74469;SDS011;62918;55.706;37.816;2023-06-14T02:22:24;17.60;;;10.18;;
74469;SDS011;62918;55.706;37.816;2023-06-14T02:22:54;18.38;;;8.90;;
74469;SDS011;62918;55.706;37.816;2023-06-14T02:23:25;17.10;;;8.25;;
74469;SDS011;62918;55.706;37.816;2023-06-14T02:23:56;17.80;;;9.48;;
74469;SDS011;62918;55.706;37.816;2023-06-14T02:24:28;15.38;;;9.45;;
74469;SDS011;62918;55.706;37.816;2023-06-14T02:24:59;17.23;;;9.50;;
74469;SDS011;62918;55.706;37.816;2023-06-14T02:25:29;15.50;;;7.85;;
74469;SDS011;62918;55.706;37.816;2023-06-14T02:26:00;18.30;;;9.35;;
74469;SDS011;62918;55.706;37.816;2023-06-14T02:26:30;20.60;;;9.35;;
74469;SDS011;62918;55.706;37.816;2023-06-14T02:27:02;18.13;;;8.20;;
74469;SDS011;62918;55.706;37.816;2023-06-14T02:27:34;16.95;;;8.73;;
74469;SDS011;62918;55.706;37.816;2023-06-14T02:28:05;20.80;;;11.90;;
74469;SDS011;62918;55.706;37.816;2023-06-14T02:28:36;19.80;;;9.13;;
74469;SDS011;62918;55.706;37.816;2023-06-14T02:29:07;15.73;;;8.43;;
74469;SDS011;62918;55.706;37.816;2023-06-14T02:29:42;14.90;;;8.05;;
74469;SDS011;62918;55.706;37.816;2023-06-14T02:30:13;17.92;;;8.65;;
74469;SDS011;62918;55.706;37.816;2023-06-14T02:30:45;16.63;;;8.80;;
74469;SDS011;62918;55.706;37.816;2023-06-14T02:31:16;17.02;;;9.23;;
74469;SDS011;62918;55.706;37.816;2023-06-14T02:31:46;15.10;;;8.13;;
74469;SDS011;62918;55.706;37.816;2023-06-14T02:32:18;18.88;;;10.10;;
74469;SDS011;62918;55.706;37.816;2023-06-14T02:32:49;16.05;;;9.98;;
74469;SDS011;62918;55.706;37.816;2023-06-14T02:33:21;17.77;;;8.82;;
74469;SDS011;62918;55.706;37.816;2023-06-14T02:33:52;18.65;;;10.95;;
74469;SDS011;62918;55.706;37.816;2023-06-14T02:34:22;21.90;;;9.50;;
74469;SDS011;62918;55.706;37.816;2023-06-14T02:34:53;18.00;;;9.18;;
74469;SDS011;62918;55.706;37.816;2023-06-14T02:35:24;16.55;;;9.95;;
74469;SDS011;62918;55.706;37.816;2023-06-14T02:35:58;14.55;;;8.15;;
74469;SDS011;62918;55.706;37.816;2023-06-14T02:36:29;16.20;;;9.43;;
74469;SDS011;62918;55.706;37.816;2023-06-14T02:37:01;18.02;;;9.00;;
74469;SDS011;62918;55.706;37.816;2023-06-14T02:37:33;21.73;;;9.70;;
74469;SDS011;62918;55.706;37.816;2023-06-14T02:38:04;18.48;;;9.13;;
74469;SDS011;62918;55.706;37.816;2023-06-14T02:38:34;16.50;;;8.82;;
74469;SDS011;62918;55.706;37.816;2023-06-14T02:39:05;20.35;;;9.48;;
74469;SDS011;62918;55.706;37.816;2023-06-14T02:39:36;19.25;;;10.07;;
74469;SDS011;62918;55.706;37.816;2023-06-14T02:40:06;18.15;;;10.20;;
74469;SDS011;62918;55.706;37.816;2023-06-14T02:40:39;18.42;;;9.68;;
74469;SDS011;62918;55.706;37.816;2023-06-14T02:41:12;20.58;;;9.85;;
74469;SDS011;62918;55.706;37.816;2023-06-14T02:41:43;21.45;;;12.60;;
74469;SDS011;62918;55.706;37.816;2023-06-14T02:42:13;18.20;;;10.70;;
74469;SDS011;62918;55.706;37.816;2023-06-14T02:42:44;20.73;;;13.30;;
74469;SDS011;62918;55.706;37.816;2023-06-14T02:43:15;20.15;;;12.10;;
74469;SDS011;62918;55.706;37.816;2023-06-14T02:43:47;23.50;;;11.43;;
74469;SDS011;62918;55.706;37.816;2023-06-14T02:44:18;20.65;;;11.30;;
74469;SDS011;62918;55.706;37.816;2023-06-14T02:44:49;23.23;;;13.75;;
74469;SDS011;62918;55.706;37.816;2023-06-14T02:45:21;18.85;;;11.50;;
74469;SDS011;62918;55.706;37.816;2023-06-14T02:45:51;20.48;;;11.82;;
74469;SDS011;62918;55.706;37.816;2023-06-14T02:46:22;18.17;;;12.48;;
74469;SDS011;62918;55.706;37.816;2023-06-14T02:46:53;20.92;;;14.20;;
74469;SDS011;62918;55.706;37.816;2023-06-14T02:47:25;22.60;;;13.88;;
74469;SDS011;62918;55.706;37.816;2023-06-14T02:47:56;19.20;;;12.07;;
74469;SDS011;62918;55.706;37.816;2023-06-14T02:48:27;20.50;;;11.30;;
74469;SDS011;62918;55.706;37.816;2023-06-14T02:48:58;21.25;;;11.48;;
74469;SDS011;62918;55.706;37.816;2023-06-14T02:49:29;18.05;;;10.85;;
74469;SDS011;62918;55.706;37.816;2023-06-14T02:50:00;17.80;;;11.30;;
74469;SDS011;62918;55.706;37.816;2023-06-14T02:50:30;22.67;;;13.20;;
74469;SDS011;62918;55.706;37.816;2023-06-14T02:51:02;20.80;;;10.88;;
74469;SDS011;62918;55.706;37.816;2023-06-14T02:51:33;27.23;;;11.25;;
74469;SDS011;62918;55.706;37.816;2023-06-14T02:52:03;19.13;;;10.90;;
74469;SDS011;62918;55.706;37.816;2023-06-14T02:52:35;18.27;;;12.30;;
74469;SDS011;62918;55.706;37.816;2023-06-14T02:53:05;18.75;;;12.30;;
74469;SDS011;62918;55.706;37.816;2023-06-14T02:53:36;18.80;;;13.30;;
74469;SDS011;62918;55.706;37.816;2023-06-14T02:54:07;20.77;;;11.25;;
74469;SDS011;62918;55.706;37.816;2023-06-14T02:54:37;22.75;;;13.38;;
74469;SDS011;62918;55.706;37.816;2023-06-14T02:55:10;27.17;;;13.43;;
74469;SDS011;62918;55.706;37.816;2023-06-14T02:55:41;19.98;;;12.05;;
74469;SDS011;62918;55.706;37.816;2023-06-14T02:56:11;19.15;;;11.98;;
74469;SDS011;62918;55.706;37.816;2023-06-14T02:56:42;19.42;;;11.48;;
74469;SDS011;62918;55.706;37.816;2023-06-14T02:57:13;24.00;;;11.32;;
74469;SDS011;62918;55.706;37.816;2023-06-14T02:57:43;18.30;;;11.18;;
74469;SDS011;62918;55.706;37.816;2023-06-14T02:58:14;21.60;;;11.75;;
74469;SDS011;62918;55.706;37.816;2023-06-14T02:58:46;22.00;;;11.45;;
74469;SDS011;62918;55.706;37.816;2023-06-14T02:59:18;18.52;;;11.02;;
74469;SDS011;62918;55.706;37.816;2023-06-14T02:59:49;20.85;;;11.77;;
74469;SDS011;62918;55.706;37.816;2023-06-14T03:00:20;22.58;;;11.73;;
74469;SDS011;62918;55.706;37.816;2023-06-14T03:00:50;26.02;;;11.88;;
74469;SDS011;62918;55.706;37.816;2023-06-14T03:01:56;26.10;;;12.55;;
74469;SDS011;62918;55.706;37.816;2023-06-14T03:02:26;23.35;;;14.25;;
74469;SDS011;62918;55.706;37.816;2023-06-14T03:02:57;22.10;;;13.93;;
74469;SDS011;62918;55.706;37.816;2023-06-14T03:03:28;21.55;;;11.40;;
74469;SDS011;62918;55.706;37.816;2023-06-14T03:03:58;21.13;;;12.15;;
74469;SDS011;62918;55.706;37.816;2023-06-14T03:04:29;21.58;;;12.60;;
74469;SDS011;62918;55.706;37.816;2023-06-14T03:05:05;25.17;;;12.32;;
74469;SDS011;62918;55.706;37.816;2023-06-14T03:05:37;22.98;;;12.73;;
74469;SDS011;62918;55.706;37.816;2023-06-14T03:06:11;17.02;;;10.32;;
74469;SDS011;62918;55.706;37.816;2023-06-14T03:06:43;19.67;;;11.23;;
74469;SDS011;62918;55.706;37.816;2023-06-14T03:07:14;23.95;;;13.30;;
74469;SDS011;62918;55.706;37.816;2023-06-14T03:07:49;27.10;;;12.40;;
74469;SDS011;62918;55.706;37.816;2023-06-14T03:08:20;28.88;;;12.18;;
74469;SDS011;62918;55.706;37.816;2023-06-14T03:08:51;22.75;;;11.95;;
74469;SDS011;62918;55.706;37.816;2023-06-14T03:09:25;26.13;;;11.55;;
74469;SDS011;62918;55.706;37.816;2023-06-14T03:09:55;22.95;;;11.63;;